• Join FlightAware (Why Join?)
  • Login
  • US Flag 
02:55AM EST


 

Airport Tracker/Info


-or-


 

Live Flight TrackerFlight Track Log ✈ DAL268 ✈ 09-Oct-2013 ✈ KSFO - KJFK

Flight Track Log - Related Links

Times and Time Zones

All times are in EDT time to prevent confusion due to time zone crossing. See the DAL268 flight status page for this flight to view local times or setup timezone preferences in your user account.

Time Position Orientation Groundspeed Altitude Reporting Facility
EDT Latitude Longitude Course Direction KTS MPH feet Rate Location/Type
02:42PM 37.6118 -122.3720 90° East 166 191 400  Level FlightAware ADS-B
02:43PM 37.6176 -122.3680 29° Northeast 160 184 900 3,000 Climbing FlightAware ADS-B
02:43PM 37.6197 -122.3660 37° Northeast 160 184 1,000 2,700 Climbing FlightAware ADS-B
02:43PM 37.6246 -122.3620 33° Northeast 159 183 1,400 2,520 Climbing FlightAware ADS-B
02:43PM 37.6273 -122.3580 50° Northeast 165 190 1,600 1,500 Climbing FlightAware ADS-B
02:43PM 37.6326 -122.3500 50° Northeast 178 205 1,800 1,260 Climbing FlightAware ADS-B
02:43PM 37.6433 -122.3350 48° Northeast 202 232 2,200 1,620 Climbing FlightAware ADS-B
02:44PM 37.6533 -122.3200 50° Northeast 226 260 2,700 2,040 Climbing FlightAware ADS-B
02:44PM 37.6647 -122.3030 50° Northeast 242 278 3,300 2,460 Climbing FlightAware ADS-B
02:44PM 37.6770 -122.2840 51° Northeast 249 287 4,100 3,240 Climbing FlightAware ADS-B
02:44PM 37.6889 -122.2660 50° Northeast 248 285 5,100 3,360 Climbing FlightAware ADS-B
02:45PM 37.7051 -122.2420 50° Northeast 252 290 6,200 2,820 Climbing FlightAware ADS-B
02:45PM 37.7231 -122.2160 49° Northeast 267 307 7,200 3,000 Climbing FlightAware ADS-B
02:45PM 37.7355 -122.1970 50° Northeast 269 310 8,100 3,360 Climbing FlightAware ADS-B
02:46PM 37.7479 -122.1790 49° Northeast 269 310 8,900 3,060 Climbing FlightAware ADS-B
02:46PM 37.7613 -122.1570 52° Northeast 276 318 9,800 2,880 Climbing FlightAware ADS-B
02:46PM 37.7659 -122.1430 67° East 279 321 10,200 2,100 Climbing FlightAware ADS-B
02:47PM 37.7795 -122.0900 72° East 303 349 11,300 2,040 Climbing FlightAware ADS-B
02:47PM 37.7948 -122.0380 70° East 320 368 12,400 2,400 Climbing FlightAware ADS-B
02:48PM 37.8094 -121.9830 71° East 328 377 13,800 2,520 Climbing FlightAware ADS-B
02:48PM 37.8240 -121.9280 71° East 337 388 15,000 1,920 Climbing FlightAware ADS-B
02:49PM 37.8394 -121.8680 72° East 344 396 15,800 1,800 Climbing FlightAware ADS-B
02:49PM 37.8555 -121.8040 72° East 369 425 16,900 2,100 Climbing FlightAware ADS-B
02:50PM 37.8720 -121.7400 72° East 377 434 18,000 2,100 Climbing FlightAware ADS-B
02:50PM 37.8891 -121.6740 72° East 383 441 19,100 1,980 Climbing FlightAware ADS-B
02:51PM 37.9075 -121.6020 72° East 391 450 20,200 1,920 Climbing FlightAware ADS-B
02:51PM 37.9246 -121.5340 72° East 397 457 21,200 2,340 Climbing FlightAware ADS-B
02:52PM 37.9436 -121.4600 72° East 393 452 22,700 2,280 Climbing FlightAware ADS-B
02:53PM 37.9660 -121.3730 72° East 394 453 24,100 2,040 Climbing FlightAware
02:53PM 37.9745 -121.3390 72° East 396 456 24,600 1,560 Climbing FlightAware ADS-B
02:54PM 38.0010 -121.2340 72° East 405 466 25,800 1,500 Climbing FlightAware
02:54PM 38.0220 -121.1500 72° East 409 471 26,800 1,500 Climbing FlightAware
02:55PM 38.0450 -121.0610 72° East 417 480 27,700 1,380 Climbing FlightAware
02:55PM 38.0680 -120.9690 72° East 425 489 28,600 960 Climbing FlightAware
02:56PM 38.0850 -120.8840 76° East 444 511 28,900 600 Climbing FlightAware
02:57PM 38.0990 -120.8030 78° East 455 524 29,300 1,260 Climbing FlightAware
02:57PM 38.1150 -120.7080 78° East 448 516 30,400 1,380 Climbing FlightAware
02:58PM 38.1330 -120.6100 77° East 454 522 31,000 1,860 Climbing FlightAware
02:58PM 38.1338 -120.6056 77° East 455 524 31,600 1,500 Climbing FlightAware ADS-B (KAHC)
02:58PM 38.1480 -120.5290 77° East 452 520 31,800 960 Climbing FlightAware
02:59PM 38.1650 -120.4360 77° East 450 518 32,700 1,200 Climbing FlightAware
03:00PM 38.1820 -120.3390 77° East 453 521 33,300 900 Climbing FlightAware
03:00PM 38.1970 -120.2580 77° East 455 524 33,800 1,140 Climbing FlightAware
03:00PM 38.2049 -120.2114 78° East 455 524 34,300 1,740 Climbing FlightAware ADS-B (KAHC)
03:01PM 38.2248 -120.0990 77° East 438 504 35,600 1,800 Climbing FlightAware ADS-B (KAHC)
03:02PM 38.2450 -119.9850 77° East 420 483 36,900 1,080 Climbing FlightAware
03:02PM 38.2580 -119.9110 77° East 429 494 37,000 60 Climbing FlightAware
03:03PM 38.2730 -119.8240 78° East 439 505 37,000  Level FlightAware
03:04PM 38.2900 -119.7250 78° East 447 514 37,000  Level FlightAware
03:04PM 38.2955 -119.6940 77° East 449 517 37,000  Level FlightAware ADS-B (KAHC)
03:04PM 38.3129 -119.5930 78° East 451 519 37,000  Level FlightAware ADS-B (KAHC)
03:05PM 38.3270 -119.5107 78° East 453 521 37,000  Level FlightAware ADS-B (KAHC)
03:06PM 38.3400 -119.4320 78° East 454 522 37,000  Level FlightAware
03:06PM 38.3344 -119.4677 259° West 455 524 37,000  Level FlightAware ADS-B (KAHC)
03:06PM 38.3614 -119.3084 78° East 455 524 37,000  Level FlightAware ADS-B (KAHC)
03:07PM 38.3756 -119.2251 78° East 455 524 37,000  Level FlightAware ADS-B (KAHC)
03:08PM 38.3961 -119.1037 78° East 456 525 37,000  Level FlightAware ADS-B (KAHC)
03:08PM 38.4133 -118.9996 78° East 457 526 37,000  Level FlightAware ADS-B (KAHC)
03:09PM 38.4258 -118.9232 78° East 458 527 37,000  Level FlightAware ADS-B (KAHC)
03:10PM 38.4500 -118.7740 78° East 458 527 37,000  Level FlightAware
03:10PM 38.4650 -118.6820 78° East 460 529 37,000  Level FlightAware
03:11PM 38.4730 -118.6330 78° East 460 529 37,000  Level FlightAware
03:11PM 38.4950 -118.5000 78° East 461 531 37,000  Level FlightAware
03:12PM 38.5110 -118.3980 79° East 462 532 37,000  Level FlightAware
03:13PM 38.5250 -118.3130 78° East 462 532 37,000  Level FlightAware
03:13PM 38.5410 -118.2120 79° East 463 533 37,000  Level FlightAware
03:14PM 38.5560 -118.1150 79° East 464 534 37,000  Level FlightAware
03:14PM 38.5690 -118.0340 78° East 464 534 37,000  Level FlightAware
03:15PM 38.5840 -117.9430 78° East 464 534 37,000  Level FlightAware
03:16PM 38.5980 -117.8600 78° East 464 534 37,000  Level FlightAware
03:16PM 38.6110 -117.7780 79° East 464 534 37,000  Level FlightAware
03:17PM 38.6250 -117.6960 78° East 464 534 37,000  Level FlightAware
03:17PM 38.6390 -117.6140 78° East 464 534 37,000  Level FlightAware
03:18PM 38.6520 -117.5310 79° East 464 534 37,000  Level FlightAware
03:19PM 38.6660 -117.4490 78° East 464 534 37,000  Level FlightAware
03:19PM 38.6800 -117.3670 78° East 464 534 37,000  Level FlightAware
03:20PM 38.6930 -117.2840 79° East 464 534 37,000  Level FlightAware
03:20PM 38.7070 -117.2000 78° East 464 534 37,000  Level FlightAware
03:21PM 38.7210 -117.1170 78° East 464 534 37,000  Level FlightAware
03:22PM 38.7350 -117.0350 78° East 464 534 37,000  Level FlightAware
03:22PM 38.7480 -116.9530 78° East 464 534 37,000  Level FlightAware
03:23PM 38.7620 -116.8700 78° East 464 534 37,000  Level FlightAware
03:23PM 38.7760 -116.7860 78° East 464 534 37,000  Level FlightAware
03:24PM 38.7900 -116.7030 78° East 464 534 37,000  Level FlightAware
03:25PM 38.8233 -116.4092 78° East 463 533 37,000  Level Oakland Center
03:26PM 38.8461 -116.2450 80° East 465 535 37,000  Level Oakland Center
03:27PM 38.8692 -116.0692 80° East 467 537 37,000  Level Oakland Center
03:28PM 38.8953 -115.8828 80° East 470 541 37,000  Level Salt Lake Center
03:29PM 38.9217 -115.6844 80° East 468 539 37,000  Level Salt Lake Center
03:30PM 38.9433 -115.5206 80° East 468 539 37,000  Level Salt Lake Center
03:31PM 38.9658 -115.3536 80° East 469 540 37,000  Level Salt Lake Center
03:32PM 38.9878 -115.1889 80° East 469 540 37,000  Level Salt Lake Center
03:33PM 39.0094 -115.0250 80° East 467 537 37,000  Level Salt Lake Center
03:34PM 39.0303 -114.8617 81° East 465 535 37,000  Level Salt Lake Center
03:40PM 39.1450 -113.8830 81° East 474 545 37,000  Level FlightAware
03:40PM 39.1590 -113.7590 82° East 476 548 37,000  Level FlightAware
03:41PM 39.1710 -113.6590 81° East 477 549 37,000  Level FlightAware
03:42PM 39.1810 -113.5770 81° East 478 550 37,000  Level FlightAware
03:42PM 39.1920 -113.4820 81° East 479 551 37,000  Level FlightAware
03:43PM 39.2050 -113.3700 81° East 480 552 37,000  Level FlightAware
03:43PM 39.2160 -113.2830 81° East 480 552 37,000  Level FlightAware
03:44PM 39.2260 -113.1970 81° East 480 552 37,000  Level FlightAware
03:45PM 39.2370 -113.1100 81° East 480 552 37,000  Level FlightAware
03:45PM 39.2528 -112.9380 83° East 481 554 37,000  Level FlightAware ADS-B
03:46PM 39.2623 -112.8520 82° East 482 555 37,000  Level FlightAware ADS-B
03:46PM 39.2716 -112.7670 82° East 483 556 37,000  Level FlightAware ADS-B
03:47PM 39.2818 -112.6710 82° East 483 556 37,000  Level FlightAware ADS-B
03:47PM 39.2908 -112.5860 82° East 482 555 37,000  Level FlightAware ADS-B
03:47PM 39.2938 -112.5620 81° East 484 557 37,000  Level FlightAware ADS-B
03:48PM 39.3007 -112.5250 76° East 488 562 37,000  Level FlightAware ADS-B
03:48PM 39.3077 -112.4980 71° East 490 564 37,000  Level FlightAware ADS-B
03:48PM 39.3117 -112.4840 70° East 491 565 37,000  Level FlightAware ADS-B
03:49PM 39.3479 -112.3870 64° Northeast 495 570 37,000  Level FlightAware ADS-B
03:49PM 39.3783 -112.2980 66° East 493 567 37,000  Level FlightAware ADS-B
03:50PM 39.4119 -112.2010 66° East 494 568 37,000  Level FlightAware ADS-B
03:50PM 39.4415 -112.1190 65° Northeast 495 570 37,000  Level FlightAware ADS-B
03:51PM 39.4718 -112.0370 64° Northeast 497 572 37,000  Level FlightAware ADS-B
03:51PM 39.5018 -111.9550 65° Northeast 497 572 37,000  Level FlightAware ADS-B
03:52PM 39.5357 -111.8630 64° Northeast 498 573 37,000  Level FlightAware ADS-B
03:52PM 39.5656 -111.7810 65° Northeast 497 572 37,000  Level FlightAware ADS-B
03:53PM 39.6005 -111.6850 65° Northeast 496 571 37,000  Level FlightAware ADS-B
03:53PM 39.6299 -111.6030 65° Northeast 496 571 37,000  Level FlightAware ADS-B
03:54PM 39.6590 -111.5230 65° Northeast 496 571 37,000  Level FlightAware ADS-B
03:54PM 39.6881 -111.4410 65° Northeast 497 572 37,000  Level FlightAware ADS-B
03:55PM 39.7203 -111.3510 65° Northeast 497 572 37,000  Level FlightAware ADS-B
03:56PM 39.7497 -111.2680 65° Northeast 496 571 37,000  Level FlightAware ADS-B
03:56PM 39.7512 -111.2636 66° East 496 571 37,000  Level FlightAware ADS-B
03:56PM 39.7787 -111.1860 65° Northeast 494 568 37,000  Level FlightAware ADS-B
03:56PM 39.7816 -111.1778 65° Northeast 494 568 37,000  Level FlightAware ADS-B
03:57PM 39.8084 -111.1020 65° Northeast 493 567 37,000  Level FlightAware ADS-B
03:57PM 39.8129 -111.0887 66° East 493 567 37,000  Level FlightAware ADS-B
03:57PM 39.8403 -111.0110 65° Northeast 490 564 37,000  Level FlightAware ADS-B
03:57PM 39.8397 -111.0127 245° Southwest 490 564 37,000  Level FlightAware ADS-B
03:58PM 39.8686 -110.9310 65° Northeast 489 563 37,000  Level FlightAware ADS-B
03:58PM 39.8705 -110.9252 67° East 489 563 37,000  Level FlightAware ADS-B
03:58PM 39.8997 -110.8415 66° East 488 562 37,000  Level FlightAware ADS-B
03:59PM 39.9239 -110.7720 66° East 487 560 37,000  Level FlightAware ADS-B
03:59PM 39.9290 -110.7576 65° Northeast 492 566 37,000  Level FlightAware ADS-B
03:59PM 39.9652 -110.6530 66° East 495 570 37,000  Level FlightAware ADS-B
04:00PM 39.9928 -110.5738 65° Northeast 497 572 37,000  Level FlightAware ADS-B
04:00PM 40.0210 -110.4915 66° East 500 575 37,000  Level FlightAware ADS-B
04:01PM 40.0519 -110.4017 66° East 502 578 37,000  Level FlightAware ADS-B
04:01PM 40.0786 -110.3241 66° East 501 577 37,000  Level FlightAware ADS-B
04:02PM 40.1082 -110.2375 66° East 502 578 37,000  Level FlightAware ADS-B
04:03PM 40.1440 -110.1238 68° East 502 578 37,000  Level FlightAware ADS-B
04:03PM 40.1655 -110.0354 72° East 500 575 37,000  Level FlightAware ADS-B
04:04PM 40.1879 -109.9353 74° East 499 574 37,000  Level FlightAware ADS-B
04:04PM 40.2067 -109.8482 74° East 498 573 37,000  Level FlightAware ADS-B
04:05PM 40.2259 -109.7609 74° East 496 571 37,000  Level FlightAware ADS-B
04:05PM 40.2514 -109.6433 74° East 494 568 37,000  Level FlightAware ADS-B
04:06PM 40.2715 -109.5505 74° East 493 567 37,000  Level FlightAware ADS-B
04:06PM 40.2908 -109.4619 74° East 490 564 37,000  Level FlightAware ADS-B
04:07PM 40.3108 -109.3690 74° East 489 563 37,000  Level FlightAware ADS-B
04:07PM 40.3299 -109.2796 74° East 489 563 37,000  Level FlightAware ADS-B
04:08PM 40.3489 -109.1907 74° East 489 563 37,000  Level FlightAware ADS-B
04:08PM 40.1809 -109.9671 254° West 497 572 37,000  Level FlightAware ADS-B (KMTJ)
04:09PM 40.3747 -109.0700 74° East 489 563 37,000  Level FlightAware ADS-B
04:09PM 40.3925 -108.9855 74° East 490 564 37,000  Level FlightAware ADS-B
04:10PM 40.4106 -108.8994 75° East 490 564 37,000  Level FlightAware ADS-B
04:10PM 40.4301 -108.8065 75° East 492 566 37,000  Level FlightAware ADS-B
04:11PM 40.4482 -108.7191 75° East 492 566 37,000  Level FlightAware ADS-B
04:11PM 40.4666 -108.6304 75° East 493 567 37,000  Level FlightAware ADS-B
04:12PM 40.4841 -108.5463 75° East 494 568 37,000  Level FlightAware ADS-B
04:12PM 40.5026 -108.4570 75° East 494 568 37,000  Level FlightAware ADS-B
04:13PM 40.5256 -108.3442 75° East 496 571 37,000  Level FlightAware ADS-B
04:13PM 40.5437 -108.2552 75° East 497 572 37,000  Level FlightAware ADS-B
04:14PM 40.5621 -108.1653 75° East 496 571 37,000  Level FlightAware ADS-B
04:14PM 40.5807 -108.0733 75° East 497 572 37,000  Level FlightAware ADS-B
04:15PM 40.5995 -107.9801 75° East 497 572 37,000  Level FlightAware ADS-B
04:15PM 40.6170 -107.8927 75° East 496 571 37,000  Level FlightAware ADS-B
04:16PM 40.6355 -107.7997 75° East 498 573 37,000  Level FlightAware ADS-B
04:16PM 40.6527 -107.7127 75° East 499 574 37,000  Level FlightAware ADS-B
04:17PM 40.6705 -107.6229 75° East 499 574 37,000  Level FlightAware ADS-B
04:18PM 40.6887 -107.5309 75° East 497 572 37,000  Level FlightAware ADS-B
04:18PM 40.7069 -107.4385 75° East 497 572 37,000  Level FlightAware ADS-B
04:19PM 40.7308 -107.3161 76° East 501 577 37,000  Level FlightAware ADS-B
04:20PM 40.7650 -107.1410 75° East 501 577 37,000  Level FlightAware
04:20PM 40.7820 -107.0500 76° East 501 577 37,000  Level FlightAware
04:21PM 40.8050 -106.9320 76° East 502 578 37,000  Level FlightAware
04:21PM 40.8250 -106.8270 76° East 503 579 37,000  Level FlightAware
04:22PM 40.8430 -106.7290 76° East 504 580 37,000  Level FlightAware
04:23PM 40.8630 -106.6250 76° East 504 580 37,000  Level FlightAware
04:23PM 40.8840 -106.5120 76° East 503 579 37,000  Level FlightAware
04:24PM 40.9010 -106.4210 76° East 504 580 37,000  Level FlightAware
04:24PM 40.9220 -106.3080 76° East 505 581 37,000  Level FlightAware
04:25PM 40.9430 -106.1980 76° East 506 582 37,000  Level FlightAware
04:26PM 40.9610 -106.0980 77° East 505 581 37,000  Level FlightAware
04:26PM 40.9800 -105.9950 76° East 502 578 37,000  Level FlightAware
04:27PM 40.9980 -105.8930 77° East 501 577 37,000  Level FlightAware
04:27PM 41.0170 -105.7930 76° East 500 575 37,000  Level FlightAware
04:28PM 41.0350 -105.6890 77° East 500 575 37,000  Level FlightAware
04:28PM 41.0550 -105.5770 77° East 499 574 37,000  Level FlightAware
04:29PM 41.0760 -105.4610 76° East 498 573 37,000  Level FlightAware
04:30PM 41.0930 -105.3670 76° East 499 574 37,000  Level FlightAware
04:30PM 41.1110 -105.2610 77° East 501 577 37,000  Level FlightAware
04:31PM 41.1290 -105.1590 77° East 500 575 37,000  Level FlightAware
04:31PM 41.1470 -105.0580 77° East 502 578 37,000  Level FlightAware
04:32PM 41.1610 -104.9770 77° East 503 579 37,000  Level FlightAware
04:32PM 41.1790 -104.8730 77° East 505 581 37,000  Level FlightAware
04:33PM 41.2020 -104.7570 75° East 511 588 37,000  Level FlightAware
04:34PM 41.2270 -104.6450 73° East 513 590 37,000  Level FlightAware
04:34PM 41.2500 -104.5480 72° East 514 592 37,000  Level FlightAware
04:35PM 41.2760 -104.4390 72° East 515 593 37,000  Level FlightAware
04:35PM 41.3010 -104.3310 73° East 517 595 37,000  Level FlightAware
04:36PM 41.3270 -104.2200 73° East 516 594 37,000  Level FlightAware
04:37PM 41.3510 -104.1190 72° East 516 594 37,000  Level FlightAware
04:37PM 41.3730 -104.0210 73° East 516 594 37,000  Level FlightAware
04:38PM 41.4000 -103.9040 73° East 516 594 37,000  Level FlightAware
04:38PM 41.4230 -103.8060 73° East 517 595 37,000  Level FlightAware
04:39PM 41.4460 -103.7050 73° East 517 595 37,000  Level FlightAware
04:39PM 41.4680 -103.6060 73° East 516 594 37,000  Level FlightAware
04:40PM 41.4960 -103.4840 73° East 516 594 37,000  Level FlightAware
04:41PM 41.5210 -103.3720 73° East 516 594 37,000  Level FlightAware
04:41PM 41.5430 -103.2720 74° East 518 596 37,000  Level FlightAware
04:42PM 41.5680 -103.1630 73° East 518 596 37,000  Level FlightAware
04:42PM 41.5910 -103.0580 74° East 517 595 37,000  Level FlightAware
04:43PM 41.6130 -102.9620 73° East 517 595 37,000  Level FlightAware
04:44PM 41.6360 -102.8600 73° East 517 595 37,000  Level FlightAware
04:44PM 41.6560 -102.7720 73° East 517 595 37,000  Level FlightAware
04:45PM 41.6860 -102.6270 74° East 517 595 37,000  Level FlightAware
04:45PM 41.7080 -102.5310 73° East 517 595 37,000  Level FlightAware
04:46PM 41.7300 -102.4320 73° East 517 595 37,000  Level FlightAware
04:47PM 41.7700 -102.2390 74° East 515 593 37,000  Level FlightAware
04:48PM 41.7950 -102.1190 74° East 515 593 37,000  Level FlightAware
04:48PM 41.8150 -102.0250 74° East 515 593 37,000  Level FlightAware
04:49PM 41.8350 -101.9310 74° East 515 593 37,000  Level FlightAware
04:49PM 41.8540 -101.8420 74° East 515 593 37,000  Level FlightAware
04:50PM 41.8750 -101.7450 74° East 515 593 37,000  Level FlightAware
04:51PM 41.8960 -101.6480 74° East 515 593 37,000  Level FlightAware
04:51PM 41.9160 -101.5540 74° East 515 593 37,000  Level FlightAware
04:52PM 41.9360 -101.4600 74° East 515 593 37,000  Level FlightAware
04:52PM 41.9560 -101.3660 74° East 515 593 37,000  Level FlightAware
04:53PM 41.9760 -101.2720 74° East 515 593 37,000  Level FlightAware
04:54PM 41.9960 -101.1770 74° East 515 593 37,000  Level FlightAware
04:54PM 42.0160 -101.0830 74° East 515 593 37,000  Level FlightAware
04:55PM 42.0350 -100.9940 74° East 515 593 37,000  Level FlightAware
04:56PM 42.0610 -100.8730 74° East 515 593 37,000  Level FlightAware
04:56PM 42.0810 -100.7760 74° East 515 593 37,000  Level FlightAware
05:01PM 42.3104 -99.5486 75° East 515 593 37,000  Level FlightAware ADS-B
05:02PM 42.3298 -99.4444 76° East 514 592 37,000  Level FlightAware ADS-B
05:03PM 42.3678 -99.2398 76° East 513 590 37,000  Level FlightAware ADS-B
05:06PM 42.4508 -98.7854 76° East 512 589 37,000  Level FlightAware ADS-B
05:06PM 42.4649 -98.6927 78° East 509 586 37,000  Level FlightAware ADS-B
05:06PM 42.4744 -98.6192 78° East 509 586 37,000  Level Minneapolis Center
05:08PM 42.4844 -98.4281 86° East 507 583 37,000  Level Minneapolis Center
05:09PM 42.4928 -98.2378 87° East 506 582 37,000  Level Minneapolis Center
05:15PM 42.5430 -97.0680 87° East 503 579 37,000  Level FlightAware
05:15PM 42.5468 -96.9604 87° East 505 581 37,000  Level FlightAware ADS-B
05:16PM 42.5500 -96.8630 87° East 504 580 37,000  Level FlightAware
05:16PM 42.5507 -96.8540 84° East 505 581 37,000  Level FlightAware ADS-B
05:17PM 42.5590 -96.6240 87° East 505 581 37,000  Level FlightAware
05:17PM 42.5564 -96.6937 267° West 506 582 37,000  Level FlightAware ADS-B
05:18PM 42.5660 -96.3990 87° East 503 579 37,000  Level FlightAware
05:19PM 42.5703 -96.2662 87° East 500 575 37,000  Level FlightAware ADS-B
05:19PM 42.5740 -96.1570 87° East 498 573 37,000  Level FlightAware
05:20PM 42.5770 -96.0440 88° East 496 571 37,000  Level FlightAware
05:21PM 42.5800 -95.9480 88° East 495 570 37,000  Level FlightAware
05:21PM 42.5825 -95.8472 88° East 493 567 37,000  Level FlightAware ADS-B
05:22PM 42.5850 -95.7400 88° East 493 567 37,000  Level FlightAware
05:22PM 42.5880 -95.6240 88° East 492 566 37,000  Level FlightAware
05:23PM 42.5901 -95.5432 88° East 491 565 37,000  Level FlightAware ADS-B
05:23PM 42.5930 -95.4010 88° East 490 564 37,000  Level FlightAware
05:24PM 42.5950 -95.3030 88° East 490 564 37,000  Level FlightAware
05:25PM 42.5980 -95.1920 88° East 489 563 37,000  Level FlightAware
05:25PM 42.6000 -95.0880 88° East 488 562 37,000  Level FlightAware
05:25PM 42.6005 -95.0550 89° East 488 562 37,000  Level FlightAware ADS-B (LPVM)
05:26PM 42.6022 -94.9631 89° East 488 562 37,000  Level FlightAware ADS-B (LPVM)
05:27PM 42.6050 -94.7650 89° East 487 560 37,000  Level FlightAware
05:27PM 42.6060 -94.7413 87° East 487 560 37,000  Level FlightAware ADS-B (LPVM)
05:28PM 42.6090 -94.5530 89° East 486 559 37,000  Level FlightAware
05:29PM 42.6102 -94.4572 89° East 485 558 37,000  Level FlightAware ADS-B
05:29PM 42.6108 -94.4057 89° East 485 558 37,000  Level FlightAware ADS-B (LPVM)
05:29PM 42.6105 -94.4227 268° West 485 558 37,000  Level FlightAware ADS-B
05:30PM 42.6130 -94.2260 89° East 484 557 37,000  Level FlightAware
05:30PM 42.6122 -94.2859 269° West 484 557 37,000  Level FlightAware ADS-B
05:31PM 42.6135 -94.1123 89° East 483 556 37,000  Level FlightAware ADS-B (LPVM)
05:31PM 42.6137 -94.0678 90° East 483 556 37,000  Level FlightAware ADS-B
05:31PM 42.6141 -94.0187 89° East 483 556 37,000  Level FlightAware ADS-B (LPVM)
05:32PM 42.6150 -93.9090 89° East 482 555 37,000  Level FlightAware
05:32PM 42.6150 -93.8759 90° East 483 556 37,000  Level FlightAware ADS-B
05:32PM 42.6151 -93.8207 90° East 482 555 37,000  Level FlightAware ADS-B (LPVM)
05:33PM 42.6160 -93.7040 89° East 482 555 37,000  Level FlightAware
05:33PM 42.6160 -93.5970 90° East 482 555 37,000  Level FlightAware
05:34PM 42.6162 -93.5472 90° East 482 555 37,000  Level FlightAware ADS-B (LPVM)
05:34PM 42.6162 -93.4803 90° East 481 554 37,000  Level FlightAware ADS-B (LPVM)
05:35PM 42.6160 -93.3630 90° East 481 554 37,000  Level FlightAware
05:35PM 42.6160 -93.2590 90° East 481 554 37,000  Level FlightAware
05:36PM 42.6162 -93.1820 90° East 481 554 37,000  Level FlightAware ADS-B (LPVM)
05:36PM 42.6160 -93.0851 90° East 481 554 37,000  Level FlightAware ADS-B (LPVM)
05:37PM 42.6156 -92.9496 90° East 480 552 37,000  Level FlightAware ADS-B (LPVM)
05:37PM 42.6153 -92.8526 90° East 480 552 37,000  Level FlightAware ADS-B (LPVM)
05:38PM 42.6150 -92.7320 90° East 479 551 37,000  Level FlightAware
05:38PM 42.6144 -92.7027 92° East 479 551 37,000  Level FlightAware ADS-B (LPVM)
05:39PM 42.6134 -92.5395 90° East 478 550 37,000  Level FlightAware ADS-B (LPVM)
05:40PM 42.6130 -92.4210 90° East 479 551 37,000  Level FlightAware
05:40PM 42.6120 -92.3636 91° East 479 551 37,000  Level FlightAware ADS-B (LPVM)
05:41PM 42.6100 -92.2000 91° East 479 551 37,000  Level FlightAware
05:41PM 42.6101 -92.1651 90° East 479 551 37,000  Level FlightAware ADS-B (LPVM)
05:42PM 42.6089 -92.0544 91° East 479 551 37,000  Level FlightAware ADS-B (LPVM)
05:42PM 42.6079 -91.9545 91° East 478 550 37,000  Level FlightAware ADS-B (LPVM)
05:43PM 42.6067 -91.8647 91° East 478 550 37,000  Level FlightAware ADS-B (LPVM)
05:43PM 42.6055 -91.7742 91° East 477 549 37,000  Level FlightAware ADS-B (LPVM)
05:44PM 42.6040 -91.6810 91° East 477 549 37,000  Level FlightAware
05:44PM 42.6041 -91.6783 87° East 477 549 37,000  Level FlightAware ADS-B (LPVM)
05:45PM 42.6024 -91.5677 91° East 477 549 37,000  Level FlightAware ADS-B (LPVM)
05:45PM 42.6008 -91.4764 91° East 476 548 37,000  Level FlightAware ADS-B (LPVM)
05:46PM 42.5990 -91.3700 91° East 477 549 37,000  Level FlightAware
05:46PM 42.5981 -91.3058 91° East 477 549 37,000  Level FlightAware ADS-B (LPVM)
05:47PM 42.5950 -91.1520 92° East 477 549 37,000  Level FlightAware
05:48PM 42.5930 -91.0600 92° East 476 548 37,000  Level FlightAware
05:48PM 42.5916 -90.9674 91° East 476 548 37,000  Level FlightAware ADS-B (LPVM)
05:49PM 42.5890 -90.8440 92° East 475 547 37,000  Level FlightAware
05:49PM 42.5874 -90.7798 92° East 474 545 37,000  Level FlightAware ADS-B (LPVM)
05:50PM 42.5840 -90.6210 92° East 473 544 37,000  Level FlightAware
05:51PM 42.5810 -90.5130 92° East 472 543 37,000  Level FlightAware
05:51PM 42.5790 -90.4070 91° East 471 542 37,000  Level FlightAware
05:52PM 42.5760 -90.3080 92° East 471 542 37,000  Level FlightAware
05:52PM 42.5740 -90.2070 92° East 471 542 37,000  Level FlightAware
05:53PM 42.5710 -90.1080 92° East 470 541 37,000  Level FlightAware
05:53PM 42.5680 -89.9980 92° East 470 541 37,000  Level FlightAware
05:54PM 42.5650 -89.8960 92° East 470 541 37,000  Level FlightAware
05:55PM 42.5620 -89.7970 92° East 469 540 37,000  Level FlightAware
05:55PM 42.5580 -89.6860 93° East 469 540 37,000  Level FlightAware
05:56PM 42.5560 -89.6000 92° East 468 539 37,000  Level FlightAware
05:56PM 42.5520 -89.4910 93° East 468 539 37,000  Level FlightAware
05:57PM 42.5490 -89.3890 92° East 467 537 37,000  Level FlightAware
05:58PM 42.5450 -89.2870 93° East 467 537 37,000  Level FlightAware
05:58PM 42.5420 -89.1880 92° East 467 537 37,000  Level FlightAware
05:59PM 42.5390 -89.0870 92° East 466 536 37,000  Level FlightAware
05:59PM 42.5350 -88.9850 93° East 466 536 37,000  Level FlightAware
06:00PM 42.5310 -88.8770 93° East 466 536 37,000  Level FlightAware
06:01PM 42.5270 -88.7660 93° East 465 535 37,000  Level FlightAware
06:01PM 42.5230 -88.6830 94° East 464 534 37,000  Level FlightAware
06:02PM 42.5190 -88.5730 93° East 463 533 37,000  Level FlightAware
06:02PM 42.5150 -88.4650 93° East 462 532 37,000  Level FlightAware
06:03PM 42.5110 -88.3760 93° East 461 531 37,000  Level FlightAware
06:03PM 42.5070 -88.2680 93° East 459 528 37,000  Level FlightAware
06:04PM 42.5020 -88.1640 94° East 457 526 37,000  Level FlightAware
06:05PM 42.4990 -88.0720 93° East 457 526 37,000  Level FlightAware
06:05PM 42.4960 -87.9770 92° East 456 525 37,000  Level FlightAware
06:06PM 42.4960 -87.8730 90° East 455 524 37,000  Level FlightAware
06:06PM 42.4960 -87.7680 90° East 454 522 37,000  Level FlightAware
06:07PM 42.4960 -87.6650 90° East 453 521 37,000  Level FlightAware
06:08PM 42.4960 -87.5360 90° East 451 519 37,000  Level FlightAware
06:08PM 42.4960 -87.4090 90° East 451 519 37,000  Level FlightAware
06:09PM 42.4950 -87.3220 91° East 451 519 37,000  Level FlightAware
06:10PM 42.4950 -87.2220 90° East 451 519 37,000  Level FlightAware
06:10PM 42.4940 -87.1290 91° East 450 518 37,000  Level FlightAware
06:11PM 42.4940 -87.0420 90° East 450 518 37,000  Level FlightAware
06:11PM 42.4930 -86.9010 91° East 449 517 37,000  Level FlightAware
06:12PM 42.4920 -86.8130 91° East 449 517 37,000  Level FlightAware
06:13PM 42.4910 -86.7090 91° East 449 517 37,000  Level FlightAware
06:13PM 42.4910 -86.6150 90° East 449 517 37,000  Level FlightAware
06:14PM 42.4900 -86.5050 91° East 451 519 37,000  Level FlightAware
06:14PM 42.4890 -86.4130 91° East 451 519 37,000  Level FlightAware
06:15PM 42.4870 -86.3080 91° East 453 521 37,000  Level FlightAware
06:15PM 42.4860 -86.2230 91° East 454 522 37,000  Level FlightAware
06:16PM 42.4850 -86.1170 91° East 455 524 37,000  Level FlightAware
06:17PM 42.4830 -86.0120 91° East 456 525 37,000  Level FlightAware
06:17PM 42.4820 -85.9170 91° East 457 526 37,000  Level FlightAware
06:18PM 42.4800 -85.8190 92° East 458 527 37,000  Level FlightAware
06:19PM 42.4780 -85.6930 91° East 459 528 37,000  Level FlightAware
06:19PM 42.4770 -85.5860 91° East 459 528 37,000  Level FlightAware
06:20PM 42.4750 -85.4950 92° East 459 528 37,000  Level FlightAware
06:20PM 42.4730 -85.3900 91° East 459 528 37,000  Level FlightAware
06:21PM 42.4710 -85.2760 91° East 459 528 37,000  Level FlightAware
06:22PM 42.4690 -85.1810 92° East 459 528 37,000  Level FlightAware
06:22PM 42.4660 -85.0750 92° East 459 528 37,000  Level FlightAware
06:23PM 42.4640 -84.9630 91° East 459 528 37,000  Level FlightAware
06:23PM 42.4610 -84.8650 92° East 458 527 37,000  Level FlightAware
06:24PM 42.4590 -84.7770 92° East 458 527 37,000  Level FlightAware
06:25PM 42.4560 -84.6680 92° East 459 528 37,000  Level FlightAware
06:25PM 42.4540 -84.5660 91° East 460 529 37,000  Level FlightAware
06:26PM 42.4510 -84.4660 92° East 461 531 37,000  Level FlightAware
06:26PM 42.4480 -84.3650 92° East 461 531 37,000  Level FlightAware
06:27PM 42.4450 -84.2660 92° East 461 531 37,000  Level FlightAware
06:27PM 42.4420 -84.1660 92° East 462 532 37,000  Level FlightAware
06:28PM 42.4390 -84.0680 92° East 462 532 37,000  Level FlightAware
06:28PM 42.4370 -83.9800 92° East 462 532 37,000  Level FlightAware
06:29PM 42.4330 -83.8540 92° East 463 533 37,000  Level FlightAware
06:30PM 42.4300 -83.7630 93° East 463 533 37,000  Level FlightAware
06:30PM 42.4260 -83.6570 93° East 463 533 37,000  Level FlightAware
06:31PM 42.4220 -83.5580 93° East 463 533 37,000  Level FlightAware
06:32PM 42.4180 -83.4500 93° East 463 533 37,000  Level FlightAware
06:32PM 42.4150 -83.3560 92° East 462 532 37,000  Level FlightAware
06:33PM 42.4110 -83.2550 93° East 462 532 37,000  Level FlightAware
06:33PM 42.4070 -83.1500 93° East 462 532 37,000  Level FlightAware
06:34PM 42.4030 -83.0610 93° East 461 531 37,000  Level FlightAware
06:34PM 42.3990 -82.9520 93° East 461 531 37,000  Level FlightAware
06:35PM 42.3950 -82.8560 93° East 461 531 37,000  Level FlightAware
06:36PM 42.3900 -82.7490 94° East 461 531 37,000  Level FlightAware
06:36PM 42.3860 -82.6530 93° East 462 532 37,000  Level FlightAware
06:37PM 42.3830 -82.5490 92° East 463 533 37,000  Level FlightAware
06:37PM 42.3790 -82.4520 93° East 463 533 37,000  Level FlightAware
06:38PM 42.3760 -82.3480 92° East 464 534 37,000  Level FlightAware
06:38PM 42.3720 -82.2490 93° East 465 535 37,000  Level FlightAware
06:39PM 42.3670 -82.1440 94° East 465 535 37,000  Level FlightAware
06:40PM 42.3630 -82.0420 93° East 464 534 37,000  Level FlightAware
06:40PM 42.3590 -81.9450 93° East 463 533 37,000  Level FlightAware
06:41PM 42.3550 -81.8420 93° East 463 533 37,000  Level FlightAware
06:41PM 42.3510 -81.7500 93° East 462 532 37,000  Level FlightAware
06:42PM 42.3460 -81.6430 94° East 461 531 37,000  Level FlightAware
06:43PM 42.3410 -81.5380 94° East 459 528 37,000  Level FlightAware
06:43PM 42.3370 -81.4400 93° East 457 526 37,000  Level FlightAware
06:44PM 42.3320 -81.3400 94° East 456 525 37,000  Level FlightAware
06:44PM 42.3280 -81.2430 93° East 455 524 37,000  Level FlightAware
06:45PM 42.3230 -81.1500 94° East 455 524 37,000  Level FlightAware
06:45PM 42.3190 -81.0610 93° East 455 524 37,000  Level FlightAware
06:46PM 42.3140 -80.9730 94° East 456 525 37,000  Level FlightAware
06:47PM 42.3080 -80.8560 94° East 456 525 37,000  Level FlightAware
06:47PM 42.3030 -80.7570 94° East 457 526 37,000  Level FlightAware
06:48PM 42.2980 -80.6650 94° East 459 528 37,000  Level FlightAware
06:48PM 42.2930 -80.5610 94° East 462 532 37,000  Level FlightAware
06:49PM 42.2870 -80.4570 94° East 464 534 37,000  Level FlightAware
06:50PM 42.2810 -80.3550 95° East 466 536 37,000  Level FlightAware
06:50PM 42.2760 -80.2600 94° East 467 537 37,000  Level FlightAware
06:51PM 42.2700 -80.1570 94° East 467 537 37,000  Level FlightAware
06:51PM 42.2630 -80.0480 95° East 468 539 37,000  Level FlightAware
06:52PM 42.2580 -79.9540 94° East 468 539 37,000  Level FlightAware
06:52PM 42.2510 -79.8550 95° East 467 537 37,000  Level FlightAware
06:53PM 42.2450 -79.7460 94° East 467 537 37,000  Level FlightAware
06:54PM 42.2380 -79.6440 95° East 466 536 37,000  Level FlightAware
06:54PM 42.2330 -79.5530 94° East 466 536 37,000  Level FlightAware
06:55PM 42.2260 -79.4470 95° East 466 536 37,000  Level FlightAware
06:55PM 42.2190 -79.3400 95° East 466 536 37,000  Level FlightAware
06:56PM 42.2130 -79.2480 95° East 466 536 37,000  Level FlightAware
06:57PM 42.2000 -79.1240 98° East 460 529 37,000  Level FlightAware
06:57PM 42.1780 -79.0250 107° East 455 524 37,000  Level FlightAware
06:58PM 42.1560 -78.9350 108° East 455 524 37,000  Level FlightAware
06:58PM 42.1330 -78.8470 109° East 455 524 37,000  Level FlightAware
06:59PM 42.1070 -78.7450 109° East 455 524 37,000  Level FlightAware
07:00PM 42.0830 -78.6470 108° East 455 524 37,000  Level FlightAware
07:00PM 42.0610 -78.5620 109° East 454 522 37,000  Level FlightAware
07:01PM 42.0360 -78.4650 109° East 453 521 37,000  Level FlightAware
07:01PM 42.0140 -78.3770 109° East 453 521 37,000  Level FlightAware
07:02PM 41.9890 -78.2800 109° East 452 520 37,000  Level FlightAware
07:02PM 41.9660 -78.1920 109° East 453 521 37,000  Level FlightAware
07:03PM 41.9430 -78.1050 110° East 453 521 37,000  Level FlightAware
07:04PM 41.9170 -78.0030 109° East 453 521 37,000  Level FlightAware
07:04PM 41.8930 -77.9100 109° East 452 520 37,000  Level FlightAware
07:05PM 41.8670 -77.8120 110° East 453 521 37,000  Level FlightAware
07:05PM 41.8430 -77.7230 110° East 454 522 37,000  Level FlightAware
07:06PM 41.8180 -77.6280 109° East 455 524 37,000  Level FlightAware
07:07PM 41.7930 -77.5310 109° East 455 524 37,000  Level FlightAware
07:07PM 41.7700 -77.4470 110° East 456 525 37,000  Level FlightAware
07:08PM 41.7460 -77.3560 109° East 456 525 37,000  Level FlightAware
07:08PM 41.7190 -77.2560 110° East 458 527 37,000  Level FlightAware
07:09PM 41.6930 -77.1620 110° East 458 527 37,000  Level FlightAware
07:09PM 41.6710 -77.0790 110° East 459 528 37,000  Level FlightAware
07:10PM 41.6420 -76.9740 110° East 459 528 37,000  Level FlightAware
07:10PM 41.6240 -76.9060 109° East 459 528 37,000  Level FlightAware
07:11PM 41.6010 -76.8220 110° East 459 528 37,000  Level FlightAware
07:12PM 41.5710 -76.7130 110° East 459 528 37,000  Level FlightAware
07:12PM 41.5460 -76.6220 110° East 459 528 37,000  Level FlightAware
07:13PM 41.5140 -76.5060 110° East 459 528 37,000  Level FlightAware
07:14PM 41.4820 -76.3890 110° East 459 528 37,000  Level FlightAware
07:14PM 41.4560 -76.2980 111° Southeast 458 527 37,000 -120 Level FlightAware
07:15PM 41.4310 -76.2100 111° Southeast 457 526 36,900 -600 Descending FlightAware
07:15PM 41.4090 -76.1310 110° East 458 527 36,400 -1,080 Descending FlightAware
07:16PM 41.3830 -76.0370 110° East 460 529 35,700 -1,500 Descending FlightAware
07:17PM 41.3540 -75.9370 111° Southeast 462 532 34,600 -2,340 Descending FlightAware
07:17PM 41.3280 -75.8450 111° Southeast 465 535 32,900 -3,000 Descending FlightAware
07:18PM 41.3040 -75.7600 111° Southeast 468 539 31,300 -3,360 Descending FlightAware
07:18PM 41.2750 -75.6650 112° Southeast 470 541 29,200 -3,600 Descending FlightAware
07:19PM 41.2420 -75.5660 114° Southeast 472 543 27,000 -3,300 Descending FlightAware
07:19PM 41.2120 -75.4760 114° Southeast 464 534 25,300 -2,880 Descending FlightAware
07:20PM 41.1820 -75.3880 114° Southeast 455 524 23,700 -1,920 Descending FlightAware
07:21PM 41.1530 -75.3020 114° Southeast 445 512 23,100 -600 Descending FlightAware
07:21PM 41.1220 -75.2100 114° Southeast 440 506 23,000 -120 Descending FlightAware
07:22PM 41.0940 -75.1270 114° Southeast 437 503 23,000  Level FlightAware
07:22PM 41.0690 -75.0540 114° Southeast 438 504 23,000  Level FlightAware
07:23PM 41.0350 -74.9570 115° Southeast 433 498 23,000 -840 Level FlightAware
07:24PM 41.0110 -74.8670 109° East 423 487 22,000 -2,280 Descending FlightAware
07:24PM 41.0000 -74.7800 99° East 417 480 20,400 -2,340 Descending FlightAware
07:25PM 40.9910 -74.6930 98° East 398 458 19,300 -1,200 Descending FlightAware
07:25PM 40.9820 -74.6080 98° East 391 450 19,000 -300 Descending FlightAware
07:26PM 40.9730 -74.5290 99° East 392 451 19,000  Level FlightAware
07:26PM 40.9640 -74.4450 98° East 392 451 19,000  Level FlightAware
07:27PM 40.9568 -74.3797 98° East 391 450 19,000  Level FlightAware ADS-B
07:28PM 40.9430 -74.2840 101° East 391 450 19,000  Level FlightAware
07:28PM 40.9382 -74.2617 106° East 391 450 19,000  Level FlightAware ADS-B
07:28PM 40.9070 -74.1697 114° Southeast 379 436 19,000  Level FlightAware ADS-B
07:29PM 40.8873 -74.1179 117° Southeast 327 376 19,000 -420 Level FlightAware ADS-B
07:29PM 40.8663 -74.0664 118° Southeast 310 357 18,600 -960 Descending FlightAware ADS-B
07:30PM 40.8644 -74.0616 118° Southeast 310 357 18,500 -1,860 Descending FlightAware ADS-B (KSNC)
07:30PM 40.8422 -74.0077 119° Southeast 309 356 17,500 -2,220 Descending FlightAware ADS-B
07:31PM 40.8204 -73.9550 119° Southeast 301 346 16,100 -2,640 Descending FlightAware ADS-B
07:31PM 40.8000 -73.9060 119° Southeast 291 335 14,700 -2,640 Descending FlightAware
07:32PM 40.7839 -73.8661 118° Southeast 297 342 13,600 -1,980 Descending FlightAware ADS-B
07:32PM 40.7655 -73.8208 118° Southeast 284 327 12,900 -960 Descending FlightAware ADS-B (KSNC)
07:33PM 40.7326 -73.7418 119° Southeast 279 321 12,300 -900 Descending FlightAware ADS-B (KSNC)
07:33PM 40.7251 -73.7295 129° Southeast 280 322 12,000 -2,400 Descending FlightAware ADS-B (KSNC)
07:34PM 40.6610 -73.7030 163° South 290 334 9,900 -2,400 Descending FlightAware
07:34PM 40.6290 -73.6960 171° South 284 327 9,000 -2,100 Descending FlightAware
07:35PM 40.6060 -73.6910 171° South 284 327 8,400 -1,560 Descending FlightAware
07:35PM 40.5800 -73.6850 170° South 280 322 8,000 -1,200 Descending FlightAware
07:35PM 40.5530 -73.6790 170° South 277 319 7,600 -600 Descending FlightAware
07:36PM 40.5230 -73.6720 170° South 277 319 7,600  Level FlightAware
07:36PM 40.4970 -73.6670 172° South 279 321 7,600 -600 Level FlightAware
07:36PM 40.4710 -73.6700 185° South 277 319 7,200 -1,500 Descending FlightAware
07:37PM 40.4480 -73.6750 189° South 274 315 6,600 -1,980 Descending FlightAware
07:37PM 40.4198 -73.6827 192° South 274 315 5,900 -2,100 Descending FlightAware ADS-B (KSNC)
07:38PM 40.3890 -73.7380 234° Southwest 279 321 4,300 -2,340 Descending FlightAware
07:38PM 40.3870 -73.7710 265° West 284 327 3,500 -2,280 Descending FlightAware
07:38PM 40.3860 -73.8010 268° West 284 327 3,000 -1,620 Descending FlightAware
07:39PM 40.3870 -73.8190 274° West 276 318 2,700 -960 Descending FlightAware
07:39PM 40.3900 -73.8300 290° West 264 304 2,700 -480 Level FlightAware
07:39PM 40.4020 -73.8570 300° West 243 280 2,500 -780 Descending FlightAware
07:39PM 40.4130 -73.8820 300° West 229 264 2,200 -660 Descending FlightAware
07:40PM 40.4220 -73.9020 301° West 210 242 2,100 -600 Descending FlightAware
07:40PM 40.4290 -73.9130 310° West 193 222 1,900 -720 Descending FlightAware
07:40PM 40.4360 -73.9180 331° Northwest 180 207 1,900 -360 Level FlightAware
07:40PM 40.4410 -73.9200 343° North 173 199 1,800 -480 Descending FlightAware
07:41PM 40.4620 -73.9170 North 170 196 1,600 -240 Descending FlightAware
07:41PM 40.4840 -73.9050 23° Northeast 171 197 1,600  Level FlightAware
07:41PM 40.4970 -73.8950 30° Northeast 170 196 1,600  Level FlightAware
07:42PM 40.5100 -73.8840 33° Northeast 169 194 1,600  Level FlightAware
07:42PM 40.5250 -73.8720 31° Northeast 169 194 1,600  Level FlightAware
07:42PM 40.5380 -73.8620 30° Northeast 170 196 1,600  Level FlightAware
07:43PM 40.5550 -73.8480 32° Northeast 174 200 1,600 -420 Level FlightAware
07:43PM 40.5690 -73.8370 31° Northeast 168 193 1,300 -900 Descending FlightAware
07:44PM 40.5820 -73.8270 30° Northeast 153 176 1,000 -780 Descending FlightAware
07:44PM 40.5930 -73.8180 32° Northeast 132 152 800 -780 Descending FlightAware
07:44PM 40.6030 -73.8100 31° Northeast 119 137 500 -720 Descending FlightAware
07:45PM 40.6130 -73.8020 31° Northeast 125 144 300 -600 Descending FlightAware
07:45PM 40.6230 -73.7930 34° Northeast 126 145 100 -600 Descending FlightAware
07:45PM 40.6350 -73.7840 30° Northeast 123 142 -300 Descending FlightAware
07:46PM 40.6450 -73.7760 31° Northeast 110 127  Level FlightAware